Time;durP1;ratioP1;P1;durP2;ratioP2;P2;SDS_P1;SDS_P2;PMS_P1;PMS_P2;Temp;Humidity;BMP_temperature;BMP_pressure;BME280_temperature;BME280_humidity;BME280_pressure;Samples;Min_cycle;Max_cycle;Signal;HPM_P1;HPM_P2
2023/01/03 00:00:03;;;;;;;27.08;13.77;;;;;;;4.33;100.00;102379.38;5092794;28;20077;-79
2023/01/03 00:05:50;;;;;;;30.80;14.13;;;;;;;4.28;100.00;102386.88;5092795;28;20043;-79
2023/01/03 00:21:06;;;;;;;32.45;15.32;;;;;;;3.97;100.00;102370.19;5092504;28;20042;-79
2023/01/03 00:26:53;;;;;;;22.75;12.70;;;;;;;3.83;100.00;102372.38;5092322;28;20099;-80
2023/01/03 00:32:40;;;;;;;38.55;16.35;;;;;;;3.63;100.00;102359.03;5092115;28;20124;-80
2023/01/03 00:38:27;;;;;;;32.40;14.80;;;;;;;3.53;100.00;102362.63;5092243;28;20164;-81
2023/01/03 00:44:15;;;;;;;28.92;14.90;;;;;;;3.48;100.00;102370.94;5091878;28;20111;-81
2023/01/03 00:50:02;;;;;;;31.98;14.73;;;;;;;3.47;100.00;102389.53;5091985;28;20051;-80
2023/01/03 00:55:49;;;;;;;37.35;15.98;;;;;;;3.34;100.00;102382.66;5091974;28;20369;-81
2023/01/03 01:01:42;;;;;;;32.33;16.65;;;;;;;3.29;100.00;102390.16;5091682;28;20058;-81
2023/01/03 01:07:29;;;;;;;33.33;15.68;;;;;;;3.16;100.00;102383.34;5092078;28;20088;-80
2023/01/03 01:13:15;;;;;;;33.00;15.23;;;;;;;3.08;100.00;102403.31;5095401;28;20042;-81
2023/01/03 01:19:02;;;;;;;37.85;18.50;;;;;;;2.93;100.00;102395.84;5095470;28;20391;-80
2023/01/03 01:21:30;;;;;;;46.33;21.23;;;;;;;2.95;100.00;102405.31;5095119;28;20024;-80
2023/01/03 01:27:16;;;;;;;44.90;19.85;;;;;;;2.90;100.00;102419.88;5095553;28;20058;-81
2023/01/03 01:33:03;;;;;;;35.92;17.92;;;;;;;2.77;100.00;102423.50;5095241;28;20105;-81
2023/01/03 01:39:03;;;;;;;44.72;18.55;;;;;;;2.74;100.00;102426.38;5095421;28;20396;-81
2023/01/03 01:44:40;;;;;;;38.22;18.48;;;;;;;2.68;100.00;102433.97;5093937;28;20557;-81
2023/01/03 01:50:44;;;;;;;38.72;19.75;;;;;;;2.57;100.00;102436.59;5094934;28;20059;-79
2023/01/03 01:59:52;;;;;;;43.85;20.55;;;;;;;2.47;100.00;102453.19;5095340;28;20047;-81
2023/01/03 02:05:45;;;;;;;39.22;20.00;;;;;;;2.40;100.00;102457.28;5095771;28;20047;-81
2023/01/03 02:08:10;;;;;;;46.63;20.48;;;;;;;2.26;100.00;102435.56;5093790;28;20729;-80
2023/01/03 02:14:26;;;;;;;43.15;18.65;;;;;;;2.26;100.00;102438.19;5094657;28;20094;-80
2023/01/03 02:20:58;;;;;;;56.15;20.02;;;;;;;2.12;100.00;102441.91;5095099;28;20538;-81
2023/01/03 02:24:05;;;;;;;41.17;17.15;;;;;;;1.99;100.00;102436.75;5094445;28;20067;-81
2023/01/03 02:26:43;;;;;;;41.72;18.35;;;;;;;1.98;100.00;102450.88;5075528;28;20370;-81
2023/01/03 02:32:49;;;;;;;40.13;18.20;;;;;;;1.90;100.00;102442.72;5093392;28;20487;-81
2023/01/03 02:35:32;;;;;;;48.42;20.00;;;;;;;1.94;100.00;102445.97;5077998;28;20020;-81
2023/01/03 02:38:12;;;;;;;61.30;23.58;;;;;;;1.93;100.00;102442.50;5104746;28;20044;-82
2023/01/03 02:44:21;;;;;;;45.25;19.00;;;;;;;1.84;100.00;102440.56;5110805;28;20031;-82
2023/01/03 02:50:12;;;;;;;45.13;20.30;;;;;;;2.03;100.00;102446.13;5113978;28;20059;-82
2023/01/03 02:56:16;;;;;;;51.58;22.08;;;;;;;1.89;100.00;102438.41;5097157;28;20134;-81
2023/01/03 02:58:45;;;;;;;55.30;21.88;;;;;;;1.98;100.00;102452.69;5098111;28;20087;-81
2023/01/03 03:01:11;;;;;;;52.33;22.30;;;;;;;2.04;100.00;102447.81;5088482;28;20038;-82
2023/01/03 03:03:38;;;;;;;73.28;30.80;;;;;;;1.98;100.00;102437.69;5102988;28;20098;-81
2023/01/03 03:06:11;;;;;;;67.47;25.27;;;;;;;2.05;100.00;102449.47;5096988;28;20114;-81
2023/01/03 03:14:48;;;;;;;59.53;24.00;;;;;;;1.95;100.00;102445.84;5095234;28;20046;-80
2023/01/03 03:17:19;;;;;;;52.85;22.02;;;;;;;1.92;100.00;102445.25;5093788;28;20522;-81
2023/01/03 03:28:58;;;;;;;52.10;20.80;;;;;;;1.96;100.00;102447.53;5092434;28;20145;-81
2023/01/03 03:31:56;;;;;;;78.67;28.23;;;;;;;2.04;100.00;102457.50;5074168;28;20089;-81
2023/01/03 03:34:29;;;;;;;58.92;22.15;;;;;;;1.95;100.00;102445.84;5020197;28;20079;-81
2023/01/03 03:37:04;;;;;;;55.88;20.52;;;;;;;1.91;100.00;102447.06;5082872;28;20449;-81
2023/01/03 03:45:44;;;;;;;62.88;22.17;;;;;;;2.05;100.00;102444.22;5093207;28;20442;-81
2023/01/03 03:48:24;;;;;;;65.78;24.48;;;;;;;2.03;100.00;102438.22;5092123;28;20055;-81
2023/01/03 03:54:15;;;;;;;70.43;22.92;;;;;;;1.92;100.00;102432.91;5093239;28;20058;-80
2023/01/03 04:00:12;;;;;;;76.22;26.08;;;;;;;2.08;100.00;102449.25;5092324;28;20038;-80
2023/01/03 04:02:39;;;;;;;61.30;22.73;;;;;;;1.96;100.00;102441.41;5092347;28;20035;-81
2023/01/03 04:08:26;;;;;;;55.40;19.90;;;;;;;1.99;100.00;102465.75;5093300;28;20047;-81
2023/01/03 04:14:13;;;;;;;53.63;19.33;;;;;;;2.03;100.00;102447.91;5093049;28;20046;-80
2023/01/03 04:20:00;;;;;;;66.72;23.45;;;;;;;2.04;100.00;102446.97;5094733;28;20059;-81
2023/01/03 04:22:25;;;;;;;65.90;25.50;;;;;;;2.02;100.00;102448.84;5093446;28;20025;-81
2023/01/03 04:24:51;;;;;;;67.70;23.35;;;;;;;2.11;100.00;102441.09;5092366;28;20052;-80
2023/01/03 04:27:16;;;;;;;58.33;21.50;;;;;;;2.13;100.00;102439.16;5092151;28;20107;-80
2023/01/03 04:33:04;;;;;;;54.70;21.20;;;;;;;2.04;100.00;102428.50;5092089;28;20549;-81
2023/01/03 04:38:51;;;;;;;58.40;22.85;;;;;;;2.16;100.00;102451.28;5092298;28;20059;-80
2023/01/03 04:41:16;;;;;;;63.97;24.23;;;;;;;2.07;100.00;102439.66;5092096;28;20473;-80
2023/01/03 04:46:27;;;;;;;56.78;21.40;;;;;;;2.12;100.00;102452.47;5091799;28;20035;-80
2023/01/03 04:48:52;;;;;;;62.45;23.20;;;;;;;2.14;100.00;102447.91;5091266;28;20043;-80
2023/01/03 04:54:39;;;;;;;67.32;22.30;;;;;;;2.05;100.00;102443.38;5091853;28;20165;-80
2023/01/03 04:57:05;;;;;;;58.65;24.98;;;;;;;2.03;100.00;102453.19;5083727;28;20040;-80
2023/01/03 04:59:30;;;;;;;61.45;23.60;;;;;;;1.95;100.00;102448.50;5074054;28;20024;-80
2023/01/03 05:01:55;;;;;;;68.22;27.25;;;;;;;1.99;100.00;102455.19;5091721;28;20520;-80
2023/01/03 05:11:10;;;;;;;69.25;24.38;;;;;;;1.96;100.00;102441.41;5092404;28;20507;-80
2023/01/03 05:16:58;;;;;;;66.63;22.60;;;;;;;2.04;100.00;102429.34;5093126;28;20075;-81
2023/01/03 05:31:34;;;;;;;69.07;21.80;;;;;;;1.79;100.00;102437.47;5092443;28;20078;-80
2023/01/03 05:34:00;;;;;;;60.90;22.00;;;;;;;1.70;100.00;102430.22;5093313;28;20469;-82
2023/01/03 05:36:25;;;;;;;53.13;20.65;;;;;;;1.75;100.00;102430.75;5078705;28;20034;-81
2023/01/03 05:38:51;;;;;;;59.55;21.52;;;;;;;1.75;100.00;102438.66;5096667;28;20036;-81
2023/01/03 05:41:58;;;;;;;46.35;19.35;;;;;;;1.79;100.00;102433.03;5075407;28;20349;-81
2023/01/03 05:47:26;;;;;;;51.65;17.52;;;;;;;1.92;100.00;102427.63;5093055;28;20175;-80
2023/01/03 05:53:12;;;;;;;63.13;21.20;;;;;;;1.96;100.00;102421.16;5091501;28;20047;-81
2023/01/03 05:58:59;;;;;;;63.30;19.00;;;;;;;1.91;100.00;102417.19;5095291;28;20491;-81
2023/01/03 06:01:25;;;;;;;55.88;20.15;;;;;;;1.94;100.00;102427.50;5076297;28;20099;-81
2023/01/03 06:03:51;;;;;;;52.05;19.13;;;;;;;1.82;100.00;102408.22;5075759;28;20063;-80
2023/01/03 06:06:17;;;;;;;49.38;18.67;;;;;;;1.91;100.00;102425.94;5094325;28;20021;-80
2023/01/03 06:08:43;;;;;;;47.53;18.17;;;;;;;2.00;100.00;102419.94;5076278;28;20040;-80
2023/01/03 06:14:30;;;;;;;48.58;15.55;;;;;;;2.18;100.00;102407.97;5094316;28;20081;-80
2023/01/03 06:23:01;;;;;;;42.00;15.57;;;;;;;2.48;100.00;102422.34;5094650;28;20039;-80
2023/01/03 06:25:27;;;;;;;46.42;16.65;;;;;;;2.58;100.00;102414.53;5094130;28;20028;-81
2023/01/03 06:27:53;;;;;;;42.25;16.98;;;;;;;2.57;100.00;102411.03;5094098;28;20030;-81
2023/01/03 06:33:41;;;;;;;38.97;15.52;;;;;;;2.70;100.00;102414.38;5094059;28;20070;-80
2023/01/03 06:36:09;;;;;;;47.53;16.98;;;;;;;2.67;100.00;102406.72;5093621;28;20492;-80
2023/01/03 06:38:35;;;;;;;43.22;16.05;;;;;;;2.60;100.00;102399.38;5094276;28;20071;-80
2023/01/03 06:44:22;;;;;;;45.80;16.42;;;;;;;2.54;100.00;102399.88;5094540;28;20047;-80
2023/01/03 06:55:37;;;;;;;44.30;15.98;;;;;;;2.37;100.00;102398.63;5095932;28;20034;-80
2023/01/03 07:01:23;;;;;;;40.80;15.52;;;;;;;2.35;100.00;102379.44;5097727;28;20059;-80
2023/01/03 07:03:49;;;;;;;42.67;14.43;;;;;;;2.27;100.00;102372.09;5077670;28;20464;-80
2023/01/03 07:09:36;;;;;;;49.22;19.77;;;;;;;2.44;100.00;102398.00;5102242;28;20066;-81
2023/01/03 07:15:23;;;;;;;56.47;19.08;;;;;;;2.53;100.00;102391.13;5096745;28;20075;-80
2023/01/03 07:17:48;;;;;;;52.28;18.13;;;;;;;2.47;100.00;102379.28;5097785;28;20380;-80
2023/01/03 07:23:35;;;;;;;56.45;18.48;;;;;;;2.65;100.00;102440.34;5094727;28;20058;-80
2023/01/03 07:26:01;;;;;;;47.67;17.52;;;;;;;2.74;100.00;102439.59;5078663;28;20108;-81
2023/01/03 07:28:26;;;;;;;48.13;16.15;;;;;;;2.91;100.00;102434.75;5104461;28;20115;-81
2023/01/03 07:30:52;;;;;;;49.22;18.23;;;;;;;3.16;100.00;102421.19;5084243;28;20119;-81
2023/01/03 07:33:18;;;;;;;61.58;20.23;;;;;;;3.34;100.00;102426.75;5102853;28;20461;-81
2023/01/03 07:39:05;;;;;;;58.25;21.88;;;;;;;3.56;100.00;102404.66;5094744;28;20061;-82
2023/01/03 07:44:52;;;;;;;80.50;25.77;;;;;;;3.71;100.00;102421.84;5103833;28;20046;-80
2023/01/03 07:47:17;;;;;;;56.33;20.90;;;;;;;3.76;100.00;102421.47;5105895;28;20059;-79
2023/01/03 07:49:43;;;;;;;63.85;20.17;;;;;;;3.76;100.00;102422.34;5081796;28;20028;-80
2023/01/03 07:52:08;;;;;;;65.63;21.30;;;;;;;3.86;100.00;102435.59;5074440;28;20032;-78
2023/01/03 07:57:55;;;;;;;72.20;22.90;;;;;;;3.80;100.00;102426.38;5093738;28;20043;-78
2023/01/03 08:03:43;;;;;;;65.25;20.60;;;;;;;3.81;100.00;102436.00;5093265;28;20062;-80
2023/01/03 08:15:36;;;;;;;78.20;28.25;;;;;;;3.99;100.00;102460.03;5093528;28;20050;-76
2023/01/03 08:21:22;;;;;;;56.40;20.85;;;;;;;4.03;100.00;102459.63;5093029;28;20047;-79
2023/01/03 08:27:09;;;;;;;66.32;24.33;;;;;;;4.19;100.00;102469.75;5096114;28;20063;-78
2023/01/03 08:29:35;;;;;;;59.85;21.83;;;;;;;4.24;100.00;102470.19;5096432;28;20032;-78
2023/01/03 08:32:01;;;;;;;61.15;20.23;;;;;;;4.24;100.00;102472.84;5079395;28;20441;-79
2023/01/03 08:34:32;;;;;;;62.67;21.48;;;;;;;4.23;100.00;102465.88;5096781;28;20047;-78
2023/01/03 08:37:02;;;;;;;54.53;21.35;;;;;;;4.32;100.00;102480.13;5077118;28;20031;-78
2023/01/03 08:39:33;;;;;;;62.95;22.02;;;;;;;4.34;100.00;102462.31;5093469;28;20044;-78
2023/01/03 08:42:02;;;;;;;65.75;21.85;;;;;;;4.39;100.00;102473.34;5095696;28;20028;-77
2023/01/03 08:47:49;;;;;;;55.38;18.17;;;;;;;4.46;100.00;102486.88;5096573;28;20082;-78
2023/01/03 08:50:15;;;;;;;51.33;17.70;;;;;;;4.50;100.00;102496.22;5096370;28;20020;-78
2023/01/03 08:52:40;;;;;;;56.90;18.85;;;;;;;4.48;100.00;102490.25;5078481;28;20052;-78
2023/01/03 08:55:07;;;;;;;55.85;20.13;;;;;;;4.50;100.00;102489.13;5079486;28;20028;-78
2023/01/03 08:57:32;;;;;;;56.25;21.60;;;;;;;4.53;100.00;102488.03;5097048;28;20043;-78
2023/01/03 08:59:57;;;;;;;71.60;26.65;;;;;;;4.59;100.00;102492.78;5094677;28;20036;-78
2023/01/03 09:02:22;;;;;;;50.70;17.90;;;;;;;4.57;100.00;102486.78;5093006;28;20043;-79
2023/01/03 09:04:48;;;;;;;54.65;18.17;;;;;;;4.59;100.00;102490.13;5096951;28;20035;-78
2023/01/03 09:07:13;;;;;;;58.80;20.58;;;;;;;4.65;100.00;102493.09;5094801;28;20040;-78
2023/01/03 09:09:38;;;;;;;65.57;24.23;;;;;;;4.72;100.00;102489.91;5094295;28;20078;-78
2023/01/03 09:12:03;;;;;;;59.88;18.88;;;;;;;4.71;100.00;102488.22;5077407;28;20028;-78
2023/01/03 09:14:30;;;;;;;56.97;19.20;;;;;;;4.77;100.00;102491.16;5076497;28;20055;-78
2023/01/03 09:16:55;;;;;;;54.70;19.70;;;;;;;4.77;100.00;102496.47;5096795;28;20039;-78
2023/01/03 09:19:20;;;;;;;58.58;19.73;;;;;;;4.85;100.00;102504.56;5096284;28;20020;-78
2023/01/03 09:21:46;;;;;;;54.45;19.50;;;;;;;4.85;100.00;102490.50;5094869;28;20590;-78
2023/01/03 09:24:11;;;;;;;52.90;18.52;;;;;;;4.94;100.00;102500.28;5076878;28;20361;-78
2023/01/03 09:26:36;;;;;;;68.15;26.50;;;;;;;4.94;100.00;102495.00;5094815;28;20040;-78
2023/01/03 09:29:02;;;;;;;57.42;21.52;;;;;;;5.00;100.00;102501.56;5096867;28;20024;-79
2023/01/03 09:31:28;;;;;;;52.75;20.02;;;;;;;5.00;100.00;102494.44;5082591;28;20043;-78
2023/01/03 09:33:54;;;;;;;52.92;19.33;;;;;;;5.05;100.00;102499.31;5082099;28;20021;-78
2023/01/03 09:39:40;;;;;;;55.65;21.80;;;;;;;5.08;100.00;102494.59;5100551;28;20186;-79
2023/01/03 09:44:57;;;;;;;49.28;20.38;;;;;;;5.30;100.00;102496.16;5091286;28;20453;-78
2023/01/03 09:47:24;;;;;;;48.97;20.25;;;;;;;5.29;100.00;102500.63;5078884;28;20024;-78
2023/01/03 09:49:53;;;;;;;41.75;19.65;;;;;;;5.29;100.00;102483.88;5098457;28;20052;-78
2023/01/03 10:04:10;;;;;;;40.38;15.80;;;;;;;5.46;100.00;102492.94;5098740;28;20503;-78
2023/01/03 10:10:22;;;;;;;43.28;19.30;;;;;;;5.51;100.00;102494.22;5100053;28;20055;-78
2023/01/03 10:13:00;;;;;;;41.65;17.52;;;;;;;5.58;100.00;102489.19;5095909;28;20051;-78
2023/01/03 10:19:07;;;;;;;41.05;16.48;;;;;;;5.72;100.00;102501.16;5096308;28;20122;-78
2023/01/03 10:21:49;;;;;;;39.17;17.67;;;;;;;5.70;100.00;102488.03;5077731;28;20101;-78
2023/01/03 10:24:29;;;;;;;32.45;13.52;;;;;;;5.80;100.00;102496.00;5094841;28;20040;-78
2023/01/03 10:27:02;;;;;;;30.42;13.35;;;;;;;5.74;100.00;102483.28;5095931;28;20027;-78
2023/01/03 10:29:27;;;;;;;37.45;14.10;;;;;;;5.85;100.00;102496.41;5096446;28;20428;-78
2023/01/03 10:32:11;;;;;;;34.35;14.68;;;;;;;5.87;100.00;102495.28;5076861;28;20025;-77
2023/01/03 10:34:37;;;;;;;31.73;13.13;;;;;;;5.95;100.00;102505.22;5099868;28;20411;-78
2023/01/03 10:37:15;;;;;;;31.33;14.65;;;;;;;5.95;100.00;102488.47;5096557;28;20787;-78
2023/01/03 10:39:40;;;;;;;29.35;11.50;;;;;;;5.98;100.00;102489.00;5078086;28;20126;-78
2023/01/03 10:42:06;;;;;;;34.85;14.07;;;;;;;6.01;100.00;102501.16;5077035;28;20040;-78
2023/01/03 10:44:32;;;;;;;22.88;12.07;;;;;;;6.03;100.00;102492.06;5096913;28;20039;-78
2023/01/03 10:47:07;;;;;;;32.45;14.30;;;;;;;6.03;100.00;102473.47;5077753;28;20707;-79
2023/01/03 10:49:32;;;;;;;34.55;15.65;;;;;;;6.09;100.00;102483.53;5095999;28;20031;-77
2023/01/03 10:52:18;;;;;;;26.85;13.90;;;;;;;6.12;100.00;102483.25;5095710;28;20028;-77
2023/01/03 10:54:49;;;;;;;29.45;13.77;;;;;;;6.15;100.00;102482.97;5090276;28;20094;-78
2023/01/03 10:57:45;;;;;;;26.02;10.93;;;;;;;6.19;100.00;102483.50;5077462;28;20123;-78
2023/01/03 11:00:25;;;;;;;27.00;11.23;;;;;;;6.29;100.00;102478.16;5095319;28;20044;-78
2023/01/03 11:02:51;;;;;;;22.35;11.32;;;;;;;6.31;100.00;102479.69;5094597;28;20028;-78
2023/01/03 11:08:43;;;;;;;26.35;11.48;;;;;;;6.33;100.00;102483.03;5096330;28;20565;-78
2023/01/03 11:11:27;;;;;;;22.33;10.13;;;;;;;6.38;100.00;102488.75;5076268;28;20043;-78
2023/01/03 11:14:09;;;;;;;20.95;10.57;;;;;;;6.33;100.00;102483.03;5094799;28;20047;-78
2023/01/03 11:16:34;;;;;;;20.77;9.77;;;;;;;6.30;100.00;102482.47;5076115;28;20028;-78
2023/01/03 11:19:04;;;;;;;23.77;10.43;;;;;;;6.33;100.00;102474.22;5094455;28;20032;-78
2023/01/03 11:22:02;;;;;;;27.00;10.48;;;;;;;6.26;100.00;102473.13;5094830;28;20043;-78
2023/01/03 11:24:34;;;;;;;26.15;14.00;;;;;;;6.24;100.00;102473.28;5095298;28;20024;-78
2023/01/03 11:27:27;;;;;;;22.95;11.30;;;;;;;6.33;100.00;102479.53;5094818;28;20028;-78
2023/01/03 11:30:16;;;;;;;29.13;11.30;;;;;;;6.32;100.00;102468.06;5076150;28;20122;-78
2023/01/03 11:32:54;;;;;;;28.83;12.63;;;;;;;6.30;100.00;102474.50;5075727;28;20028;-78
2023/01/03 11:35:38;;;;;;;22.42;10.93;;;;;;;6.37;100.00;102463.19;5090414;28;20499;-78
2023/01/03 11:38:15;;;;;;;22.25;10.88;;;;;;;6.46;100.00;102475.56;5094082;28;20028;-78
2023/01/03 11:40:52;;;;;;;26.35;11.57;;;;;;;6.55;100.00;102475.66;5075576;28;20051;-78
2023/01/03 11:43:36;;;;;;;37.88;11.30;;;;;;;6.55;100.00;102473.00;5075344;28;20024;-77
2023/01/03 11:46:37;;;;;;;20.35;11.27;;;;;;;6.58;100.00;102475.38;5074759;28;20124;-78
2023/01/03 11:49:32;;;;;;;31.55;11.93;;;;;;;6.62;100.00;102466.94;5093315;28;20051;-78
2023/01/03 11:52:29;;;;;;;27.15;11.82;;;;;;;6.64;100.00;102462.31;5073844;28;20040;-77
2023/01/03 11:55:31;;;;;;;24.85;12.20;;;;;;;6.71;100.00;102466.09;5093232;28;20027;-77
2023/01/03 11:58:29;;;;;;;20.42;10.25;;;;;;;6.71;100.00;102446.63;5074498;28;20044;-77
2023/01/03 12:01:01;;;;;;;19.58;11.80;;;;;;;6.83;100.00;102458.72;5082033;28;20043;-78
2023/01/03 12:03:44;;;;;;;25.60;11.73;;;;;;;6.79;100.00;102455.53;5092123;28;20040;-78
2023/01/03 12:06:41;;;;;;;16.92;9.13;;;;;;;6.82;100.00;102433.13;5074614;28;20028;-77
2023/01/03 12:09:36;;;;;;;18.55;9.63;;;;;;;6.83;100.00;102445.44;5088010;28;20043;-77
2023/01/03 12:12:10;;;;;;;26.83;9.20;;;;;;;7.08;100.00;102433.22;5093015;28;20024;-77
2023/01/03 12:14:52;;;;;;;20.67;8.07;;;;;;;7.28;100.00;102441.91;5090651;28;20059;-76
2023/01/03 12:20:51;;;;;;;10.02;6.43;;;;;;;7.47;100.00;102423.06;5093171;28;20123;-77
2023/01/03 12:23:32;;;;;;;10.15;5.30;;;;;;;7.48;100.00;102424.75;5074840;28;20035;-78
2023/01/03 12:26:01;;;;;;;17.05;5.95;;;;;;;7.64;100.00;102419.56;5091703;28;20109;-78
2023/01/03 12:28:37;;;;;;;10.55;5.72;;;;;;;7.84;100.00;102414.88;5092274;28;20032;-77
2023/01/03 12:31:33;;;;;;;9.73;5.78;;;;;;;7.96;100.00;102428.75;5073812;28;20533;-77
2023/01/03 12:34:21;;;;;;;12.77;6.68;;;;;;;7.70;100.00;102426.09;5064166;28;20039;-76
2023/01/03 12:37:12;;;;;;;12.40;6.07;;;;;;;7.75;100.00;102423.78;5091867;28;20812;-77
2023/01/03 12:39:59;;;;;;;10.77;5.47;;;;;;;7.69;100.00;102406.59;5092669;28;20038;-77
2023/01/03 12:42:28;;;;;;;11.13;5.88;;;;;;;7.60;100.00;102426.19;5074449;28;20175;-77
2023/01/03 12:45:31;;;;;;;13.32;6.05;;;;;;;7.56;100.00;102426.66;5067101;28;20540;-78
2023/01/03 12:47:59;;;;;;;;;;;;;;;7.57;100.00;102423.84;5053945;28;20051;-78
2023/01/03 12:50:43;;;;;;;15.43;8.18;;;;;;;7.61;100.00;102419.03;5073565;28;19955;-77
2023/01/03 12:53:24;;;;;;;15.02;7.32;;;;;;;7.55;100.00;102404.53;5092263;28;20039;-77
2023/01/03 12:56:22;;;;;;;18.42;8.02;;;;;;;7.46;100.00;102416.09;5073493;28;20048;-77
2023/01/03 12:58:58;;;;;;;17.38;8.55;;;;;;;7.42;100.00;102420.88;5092248;28;20453;-77
2023/01/03 13:01:33;;;;;;;17.83;10.25;;;;;;;7.38;100.00;102408.03;5091244;28;20488;-78
2023/01/03 13:04:05;;;;;;;18.17;9.55;;;;;;;7.33;100.00;102413.84;5091959;28;20050;-77
2023/01/03 13:06:35;;;;;;;17.65;8.85;;;;;;;7.29;100.00;102395.69;5076939;28;20457;-77
2023/01/03 13:12:28;;;;;;;16.63;8.43;;;;;;;7.36;100.00;102408.19;5095446;28;20511;-78
2023/01/03 13:15:01;;;;;;;19.10;8.75;;;;;;;7.32;100.00;102404.19;5095174;28;20044;-77
2023/01/03 13:17:28;;;;;;;14.95;8.25;;;;;;;7.39;100.00;102401.72;5076592;28;20028;-77
2023/01/03 13:19:58;;;;;;;19.90;9.52;;;;;;;7.36;100.00;102402.03;5095154;28;20039;-78
2023/01/03 13:22:34;;;;;;;12.82;7.43;;;;;;;7.44;100.00;102386.13;5095239;28;20485;-77
2023/01/03 13:25:29;;;;;;;16.30;7.93;;;;;;;7.54;100.00;102408.19;5076314;28;20198;-77
2023/01/03 13:27:57;;;;;;;13.68;7.47;;;;;;;7.55;100.00;102406.34;5076801;28;20032;-77
2023/01/03 13:30:34;;;;;;;14.25;7.15;;;;;;;7.64;100.00;102405.41;5094508;28;20409;-78
2023/01/03 13:32:59;;;;;;;14.20;7.20;;;;;;;7.59;100.00;102411.22;5095163;28;20024;-77
2023/01/03 13:35:49;;;;;;;14.03;6.13;;;;;;;7.73;100.00;102391.97;5076446;28;20078;-77
2023/01/03 13:38:19;;;;;;;9.80;6.75;;;;;;;7.77;100.00;102397.81;5080422;28;20488;-77
2023/01/03 13:40:47;;;;;;;13.23;6.38;;;;;;;7.91;100.00;102393.75;5094465;28;20028;-77
2023/01/03 13:43:19;;;;;;;13.48;5.93;;;;;;;7.92;100.00;102387.44;5094831;28;20058;-78
2023/01/03 13:45:45;;;;;;;12.63;5.57;;;;;;;7.86;100.00;102396.06;5076735;28;20032;-78
2023/01/03 13:48:22;;;;;;;9.53;5.03;;;;;;;7.77;100.00;102384.50;5094130;28;20123;-76
2023/01/03 13:51:15;;;;;;;12.57;5.85;;;;;;;7.71;100.00;102388.66;5076949;28;20301;-77
2023/01/03 13:53:56;;;;;;;11.82;6.70;;;;;;;7.67;100.00;102402.44;5094104;28;20037;-76
2023/01/03 13:56:47;;;;;;;15.43;6.43;;;;;;;7.70;100.00;102386.16;5095221;28;20488;-77
2023/01/03 13:59:34;;;;;;;13.20;5.30;;;;;;;7.76;100.00;102378.34;5065488;28;20051;-78
2023/01/03 14:02:06;;;;;;;15.00;5.97;;;;;;;7.93;100.00;102381.97;5076393;28;20051;-77
2023/01/03 14:04:47;;;;;;;13.57;6.43;;;;;;;7.99;100.00;102376.00;5093754;28;20448;-77
2023/01/03 14:07:49;;;;;;;10.95;6.50;;;;;;;7.76;100.00;102365.03;5076529;28;20035;-77
2023/01/03 14:10:46;;;;;;;13.60;4.60;;;;;;;7.75;100.00;102358.06;5093973;28;20083;-77
2023/01/03 14:13:33;;;;;;;8.75;5.20;;;;;;;7.66;100.00;102369.66;5076408;28;20012;-77
2023/01/03 14:16:40;;;;;;;10.85;4.63;;;;;;;7.47;100.00;102375.16;5093373;28;20444;-78
2023/01/03 14:19:17;;;;;;;8.73;5.20;;;;;;;7.37;100.00;102367.28;5094414;28;20058;-77
2023/01/03 14:21:47;;;;;;;15.85;4.97;;;;;;;7.32;100.00;102360.78;5094078;28;20098;-77
2023/01/03 14:24:18;;;;;;;9.35;5.68;;;;;;;7.33;100.00;102378.41;5076263;28;20480;-77
2023/01/03 14:26:44;;;;;;;15.70;4.90;;;;;;;7.33;100.00;102362.44;5094248;28;20458;-78
2023/01/03 14:29:16;;;;;;;10.73;4.80;;;;;;;7.35;100.00;102366.63;5093395;28;20135;-77
2023/01/03 14:31:46;;;;;;;12.30;6.33;;;;;;;7.35;100.00;102363.13;5076335;28;20024;-77
2023/01/03 14:34:28;;;;;;;9.15;5.05;;;;;;;7.34;100.00;102361.44;5093204;28;20051;-77
2023/01/03 14:37:00;;;;;;;10.00;4.75;;;;;;;7.17;100.00;102356.97;5094304;28;20043;-76
2023/01/03 14:39:31;;;;;;;10.27;5.38;;;;;;;7.18;100.00;102358.66;5075217;28;20035;-77
2023/01/03 14:42:01;;;;;;;10.50;5.60;;;;;;;7.18;100.00;102353.34;5075872;28;20024;-76
2023/01/03 14:44:28;;;;;;;12.73;5.85;;;;;;;7.23;100.00;102337.75;5094070;28;20028;-76
2023/01/03 14:47:16;;;;;;;15.30;5.78;;;;;;;7.19;100.00;102339.03;5093381;28;20102;-77
2023/01/03 14:49:46;;;;;;;13.68;5.82;;;;;;;7.22;100.00;102342.22;5094050;28;20031;-77
2023/01/03 14:52:18;;;;;;;15.48;5.45;;;;;;;7.09;100.00;102342.63;5093064;28;20078;-78
2023/01/03 14:54:47;;;;;;;14.43;6.03;;;;;;;7.00;100.00;102338.25;5093893;28;20032;-77
2023/01/03 14:57:39;;;;;;;12.85;6.53;;;;;;;6.93;100.00;102339.84;5075097;28;20040;-77
2023/01/03 15:00:07;;;;;;;10.35;5.60;;;;;;;6.99;100.00;102351.69;5070881;28;20070;-77
2023/01/03 15:02:37;;;;;;;12.23;5.65;;;;;;;6.96;100.00;102342.22;5093128;28;20075;-77
2023/01/03 15:05:24;;;;;;;15.25;6.50;;;;;;;6.92;100.00;102342.66;5075486;28;20039;-77
2023/01/03 15:11:13;;;;;;;11.07;5.32;;;;;;;6.97;100.00;102354.50;5094198;28;20043;-77
2023/01/03 15:13:54;;;;;;;18.27;7.05;;;;;;;7.02;100.00;102351.41;5075243;28;20114;-76
2023/01/03 15:16:36;;;;;;;8.60;4.45;;;;;;;7.02;100.00;102349.56;5089878;28;20558;-77
2023/01/03 15:19:17;;;;;;;11.20;4.90;;;;;;;6.92;100.00;102354.13;5093586;28;20024;-77
2023/01/03 15:21:42;;;;;;;12.80;4.90;;;;;;;6.89;100.00;102357.09;5092648;28;20169;-77
2023/01/03 15:24:22;;;;;;;15.15;4.95;;;;;;;6.89;100.00;102346.44;5093285;28;20530;-77
2023/01/03 15:26:52;;;;;;;13.20;5.65;;;;;;;6.91;100.00;102349.78;5091451;28;20047;-78
2023/01/03 15:29:26;;;;;;;12.23;5.40;;;;;;;6.92;100.00;102347.97;5093292;28;20468;-77
2023/01/03 15:31:52;;;;;;;13.07;5.47;;;;;;;6.88;100.00;102347.44;5092317;28;20189;-77
2023/01/03 15:34:29;;;;;;;14.70;6.20;;;;;;;6.83;100.00;102341.75;5074997;28;20114;-77
2023/01/03 15:37:00;;;;;;;16.38;5.30;;;;;;;6.78;100.00;102330.75;5075010;28;20074;-77
2023/01/03 15:39:35;;;;;;;13.88;5.25;;;;;;;6.74;100.00;102340.84;5068184;28;20515;-77
2023/01/03 15:44:46;;;;;;;16.08;5.75;;;;;;;6.60;100.00;102345.84;5092629;28;20051;-76
2023/01/03 15:47:16;;;;;;;17.05;5.50;;;;;;;6.59;100.00;102358.28;5093324;28;20024;-77
2023/01/03 15:49:46;;;;;;;20.48;6.63;;;;;;;6.50;100.00;102352.06;5092410;28;20043;-77
2023/01/03 15:52:13;;;;;;;16.15;6.03;;;;;;;6.54;100.00;102341.97;5075104;28;20020;-77
2023/01/03 15:54:40;;;;;;;16.45;6.93;;;;;;;6.58;100.00;102346.00;5073932;28;20061;-77
2023/01/03 15:57:12;;;;;;;13.73;5.35;;;;;;;6.59;100.00;102352.97;5074505;28;20036;-74
2023/01/03 15:59:37;;;;;;;22.92;8.02;;;;;;;6.67;100.00;102349.59;5091337;28;20491;-74
2023/01/03 16:02:09;;;;;;;11.20;5.80;;;;;;;6.68;100.00;102335.31;5091781;28;20044;-77
2023/01/03 16:04:34;;;;;;;14.65;5.78;;;;;;;6.68;100.00;102330.00;5074619;28;20028;-77
2023/01/03 16:06:59;;;;;;;17.13;5.93;;;;;;;6.62;100.00;102319.94;5091933;28;20177;-77
2023/01/03 16:09:24;;;;;;;15.88;6.53;;;;;;;6.60;100.00;102337.84;5092818;28;20032;-77
2023/01/03 16:11:57;;;;;;;15.75;6.55;;;;;;;6.65;100.00;102335.56;5092937;28;20762;-78
2023/01/03 16:14:31;;;;;;;13.70;6.60;;;;;;;6.62;100.00;102319.94;5083735;28;20043;-77
2023/01/03 16:16:57;;;;;;;13.05;6.35;;;;;;;6.63;100.00;102317.13;5092615;28;20331;-77
2023/01/03 16:19:25;;;;;;;16.75;6.20;;;;;;;6.63;100.00;102318.94;5091719;28;20052;-77
2023/01/03 16:21:54;;;;;;;21.45;6.28;;;;;;;6.63;100.00;102324.25;5092511;28;20020;-77
2023/01/03 16:24:19;;;;;;;22.75;8.38;;;;;;;6.57;100.00;102323.06;5073711;28;20097;-77
2023/01/03 16:26:45;;;;;;;16.77;6.70;;;;;;;6.56;100.00;102321.38;5092398;28;20105;-78
2023/01/03 16:29:12;;;;;;;13.68;6.47;;;;;;;6.53;100.00;102313.72;5092432;28;20023;-77